Impacts TAF Board INFO
FOR SITUATIONAL AWARENESS. NOT TO BE USED FOR FLIGHT PLANNING PURPOSES.
IDs:

KLAS - Las Vegas/McCarran I, NV, US

Issued at 2320 UTC 30 Apr 2017
Updated at 0020 UTC 01 May 2017
Potential Impact None Slight Moderate High
Time2356Z 01/01Z 01/02Z 01/03Z 01/04Z 01/05Z 01/06Z 01/07Z 01/08Z 01/09Z 01/10Z 01/11Z 01/12Z 01/13Z>>
Type OBS PRVL PRVL PRVL PRVL PRVL PRVL PRVL PRVL PRVL PRVL PRVL PRVL PRVL
VIS 10 >6 >6 >6 >6 >6 >6 >6 >6 >6 >6 >6 >6 >6
CIG -- -- -- -- -- -- -- -- -- -- -- -- -- --
Cover FEW SKC SKC SKC SKC SKC SKC SKC SKC SKC SKC SKC SKC SKC
FltCat VFR VFR VFR VFR VFR VFR VFR VFR VFR VFR VFR VFR VFR VFR
WX -- -- -- -- -- -- -- -- -- -- -- -- -- --
WDir 50 VRB VRB VRB 250 250 250 250 250 250 250 250 250 250
WSpd 7 6 6 6 8 8 8 8 8 8 8 8 8 8
WGst -- -- -- -- -- -- -- -- -- -- -- -- -- --

Raw TAF
KLAS 302320Z 0100/0124 VRB06KT P6SM SKC
  FM010400 25008KT P6SM SKC
  FM011500 35009G15KT P6SM SKC


Raw METAR
KLAS 302356Z 05007KT 10SM FEW250 29/M12 A2992 RMK AO2 SLP115 T02891117 10294 20217 56031
KLAS 302306Z 10010KT 10SM FEW250 29/M12 A2994 RMK AO2 T02891117
KLAS 302256Z 09008G15KT 10SM FEW250 29/M12 A2994 RMK AO2 SLP120 T02891117
KLAS 302156Z COR 35003KT 10SM FEW250 28/M12 A2998 RMK AO2 SLP133 T02781122

METAR Board
Radar Display
Forecast Discussion

FOR SITUATIONAL AWARENESS. NOT TO BE USED FOR FLIGHT PLANNING PURPOSES.

Page loaded:  00:20 UTC  |   05:20 PM Pacific  |   06:20 PM Mountain  |   07:20 PM Central  |   08:20 PM Eastern

 

ADVISORIES

FORECASTS

FORECASTS

OBSERVATIONS

USER TOOLS

ABOUT US